Time;durP1;ratioP1;P1;durP2;ratioP2;P2;SDS_P1;SDS_P2;PMS_P1;PMS_P2;Temp;Humidity;BMP_temperature;BMP_pressure;BME280_temperature;BME280_humidity;BME280_pressure;Samples;Min_cycle;Max_cycle;Signal;HPM_P1;HPM_P2
2023/07/06 00:00:42;;;;;;;3.47;1.85;;;;;;;;;;5075226;28;20199;-74
2023/07/06 00:03:09;;;;;;;4.18;1.63;;;;;;;;;;5085319;28;20198;-73
2023/07/06 00:05:36;;;;;;;4.45;2.00;;;;;;;;;;5080426;28;20267;-73
2023/07/06 00:08:06;;;;;;;2.33;1.77;;;;;;;;;;5076457;28;20203;-74
2023/07/06 00:10:35;;;;;;;2.00;1.75;;;;;;;;;;5079545;28;20230;-73
2023/07/06 00:13:02;;;;;;;5.28;2.17;;;;;;;;;;5081041;28;20194;-73
2023/07/06 00:15:31;;;;;;;3.72;2.20;;;;;;;;;;5071757;28;20199;-74
2023/07/06 00:17:58;;;;;;;4.53;2.10;;;;;;;;;;5076810;28;20281;-73
2023/07/06 00:20:27;;;;;;;4.45;2.03;;;;;;;;;;5078310;28;20206;-74
2023/07/06 00:22:55;;;;;;;2.20;1.60;;;;;;;;;;5078934;28;20195;-73
2023/07/06 00:25:25;;;;;;;2.00;1.70;;;;;;;;;;5080683;28;20210;-73
2023/07/06 00:27:59;;;;;;;2.97;2.00;;;;;;;;;;5077439;28;20241;-74
2023/07/06 00:30:41;;;;;;;3.03;1.70;;;;;;;;;;5080370;28;20245;-74
2023/07/06 00:33:09;;;;;;;3.47;1.70;;;;;;;;;;5076052;28;20280;-74
2023/07/06 00:35:40;;;;;;;3.00;1.65;;;;;;;;;;5073165;28;20211;-74
2023/07/06 00:38:10;;;;;;;3.22;1.60;;;;;;;;;;5074753;28;20253;-73
2023/07/06 00:40:40;;;;;;;4.45;1.83;;;;;;;;;;5073927;28;20203;-74
2023/07/06 00:43:10;;;;;;;2.30;1.70;;;;;;;;;;5073823;28;20234;-74
2023/07/06 00:45:38;;;;;;;2.25;1.48;;;;;;;;;;5075499;28;20230;-73
2023/07/06 00:48:10;;;;;;;3.88;1.80;;;;;;;;;;5080258;28;20198;-73
2023/07/06 00:50:38;;;;;;;2.97;1.83;;;;;;;;;;5075017;28;20228;-73
2023/07/06 00:53:07;;;;;;;4.97;1.73;;;;;;;;;;5078698;28;20203;-73
2023/07/06 00:55:40;;;;;;;1.60;1.50;;;;;;;;;;5076770;28;20302;-74
2023/07/06 00:58:12;;;;;;;2.17;1.60;;;;;;;;;;5074775;28;20295;-74
2023/07/06 01:00:40;;;;;;;2.53;1.50;;;;;;;;;;5071194;28;20265;-73
2023/07/06 01:03:09;;;;;;;2.97;1.88;;;;;;;;;;5074350;28;20205;-74
2023/07/06 01:05:38;;;;;;;2.17;1.65;;;;;;;;;;5073694;28;20202;-74
2023/07/06 01:08:07;;;;;;;3.60;1.80;;;;;;;;;;5075718;28;20268;-74
2023/07/06 01:10:34;;;;;;;3.10;1.55;;;;;;;;;;5078051;28;20223;-73
2023/07/06 01:13:02;;;;;;;3.03;1.65;;;;;;;;;;5077524;28;20213;-74
2023/07/06 01:15:31;;;;;;;3.28;1.70;;;;;;;;;;5077335;28;20211;-74
2023/07/06 01:18:02;;;;;;;2.72;1.60;;;;;;;;;;5077844;28;20214;-73
2023/07/06 01:20:31;;;;;;;2.90;1.67;;;;;;;;;;5069162;28;20215;-74
2023/07/06 01:23:17;;;;;;;1.75;1.60;;;;;;;;;;5075362;28;20203;-74
2023/07/06 01:26:10;;;;;;;2.75;1.52;;;;;;;;;;5077873;28;20243;-74
2023/07/06 01:28:47;;;;;;;2.00;1.67;;;;;;;;;;5076222;28;20203;-73
2023/07/06 01:31:20;;;;;;;4.85;1.80;;;;;;;;;;5077495;28;20226;-74
2023/07/06 01:33:52;;;;;;;1.75;1.52;;;;;;;;;;5079558;28;20203;-74
2023/07/06 01:36:23;;;;;;;3.03;1.70;;;;;;;;;;5076723;28;20210;-73
2023/07/06 01:38:50;;;;;;;2.03;1.67;;;;;;;;;;5079269;28;20225;-74
2023/07/06 01:41:26;;;;;;;2.95;1.80;;;;;;;;;;5072997;28;20202;-74
2023/07/06 01:43:53;;;;;;;3.03;1.83;;;;;;;;;;5076499;28;20202;-74
2023/07/06 01:46:22;;;;;;;3.58;1.77;;;;;;;;;;5078410;28;20206;-73
2023/07/06 01:48:50;;;;;;;2.58;1.85;;;;;;;;;;5079488;28;20207;-74
2023/07/06 01:51:21;;;;;;;2.00;1.80;;;;;;;;;;5078758;28;20225;-74
2023/07/06 01:53:54;;;;;;;3.67;1.70;;;;;;;;;;5085661;28;20210;-74
2023/07/06 01:56:23;;;;;;;3.83;2.35;;;;;;;;;;5084347;28;20217;-73
2023/07/06 01:58:54;;;;;;;4.25;2.25;;;;;;;;;;5080669;28;20194;-73
2023/07/06 02:01:25;;;;;;;2.40;1.90;;;;;;;;;;5082024;28;20210;-73
2023/07/06 02:03:53;;;;;;;4.38;2.20;;;;;;;;;;5078548;28;20202;-73
2023/07/06 02:06:20;;;;;;;4.65;2.10;;;;;;;;;;5081648;28;20207;-74
2023/07/06 02:08:47;;;;;;;3.83;1.88;;;;;;;;;;5079585;28;20285;-74
2023/07/06 02:11:15;;;;;;;2.58;1.80;;;;;;;;;;5082720;28;20226;-73
2023/07/06 02:13:43;;;;;;;2.65;1.85;;;;;;;;;;5081387;28;20264;-74
2023/07/06 02:16:10;;;;;;;2.65;1.70;;;;;;;;;;5081832;28;20293;-73
2023/07/06 02:18:39;;;;;;;1.85;1.73;;;;;;;;;;5080908;28;20201;-73
2023/07/06 02:21:06;;;;;;;3.17;1.73;;;;;;;;;;5083319;28;20194;-74
2023/07/06 02:23:34;;;;;;;1.88;1.73;;;;;;;;;;5073779;28;20207;-73
2023/07/06 02:26:01;;;;;;;3.78;2.08;;;;;;;;;;5081562;28;20202;-72
2023/07/06 02:28:29;;;;;;;3.47;1.85;;;;;;;;;;5073340;28;20222;-73
2023/07/06 02:30:57;;;;;;;3.42;1.90;;;;;;;;;;5076398;28;20225;-72
2023/07/06 02:33:24;;;;;;;4.82;1.83;;;;;;;;;;5077193;28;20275;-73
2023/07/06 02:35:53;;;;;;;2.13;1.55;;;;;;;;;;5078118;28;20245;-73
2023/07/06 02:38:21;;;;;;;1.70;1.60;;;;;;;;;;5077948;28;20363;-72
2023/07/06 02:40:49;;;;;;;2.95;2.00;;;;;;;;;;5080561;28;20205;-72
2023/07/06 02:43:17;;;;;;;2.47;1.95;;;;;;;;;;5079589;28;20202;-73
2023/07/06 02:45:47;;;;;;;1.98;1.75;;;;;;;;;;5080319;28;20206;-73
2023/07/06 02:48:14;;;;;;;3.72;1.90;;;;;;;;;;5071722;28;20206;-73
2023/07/06 02:50:41;;;;;;;2.00;1.80;;;;;;;;;;5077739;28;20237;-73
2023/07/06 02:53:10;;;;;;;3.42;1.83;;;;;;;;;;5076155;28;20199;-72
2023/07/06 02:55:37;;;;;;;2.47;1.65;;;;;;;;;;5081721;28;20198;-73
2023/07/06 02:58:04;;;;;;;2.38;1.70;;;;;;;;;;5080399;28;20203;-73
2023/07/06 03:00:31;;;;;;;2.58;1.80;;;;;;;;;;5079250;28;20209;-73
2023/07/06 03:02:59;;;;;;;3.60;1.88;;;;;;;;;;5078023;28;20202;-73
2023/07/06 03:05:26;;;;;;;3.72;1.70;;;;;;;;;;5079367;28;20241;-73
2023/07/06 03:07:54;;;;;;;2.78;1.70;;;;;;;;;;5080913;28;20232;-73
2023/07/06 03:10:23;;;;;;;2.97;1.80;;;;;;;;;;5079036;28;20211;-73
2023/07/06 03:12:51;;;;;;;2.75;1.90;;;;;;;;;;5080581;28;20217;-73
2023/07/06 03:15:18;;;;;;;2.72;1.77;;;;;;;;;;5082000;28;20293;-72
2023/07/06 03:17:48;;;;;;;1.63;1.40;;;;;;;;;;5078568;28;20198;-73
2023/07/06 03:20:19;;;;;;;3.17;1.90;;;;;;;;;;5070194;28;20195;-73
2023/07/06 03:22:48;;;;;;;3.45;1.83;;;;;;;;;;5080894;28;20203;-73
2023/07/06 03:25:15;;;;;;;3.42;1.88;;;;;;;;;;5073595;28;20226;-73
2023/07/06 03:27:46;;;;;;;2.33;1.77;;;;;;;;;;5080734;28;20210;-73
2023/07/06 03:30:14;;;;;;;3.80;1.70;;;;;;;;;;5076311;28;20203;-73
2023/07/06 03:32:42;;;;;;;2.95;1.70;;;;;;;;;;5077037;28;20229;-73
2023/07/06 03:35:10;;;;;;;4.78;2.10;;;;;;;;;;5073228;28;20203;-72
2023/07/06 03:37:37;;;;;;;2.20;1.55;;;;;;;;;;5073406;28;20237;-72
2023/07/06 03:40:05;;;;;;;2.67;1.53;;;;;;;;;;5075057;28;20259;-72
2023/07/06 03:42:32;;;;;;;1.83;1.57;;;;;;;;;;5080663;28;20345;-72
2023/07/06 03:45:05;;;;;;;4.60;1.83;;;;;;;;;;5081294;28;20199;-73
2023/07/06 03:47:33;;;;;;;2.60;1.80;;;;;;;;;;5081567;28;20214;-73
2023/07/06 03:50:00;;;;;;;3.65;2.03;;;;;;;;;;5076724;28;20272;-72
2023/07/06 03:52:28;;;;;;;3.22;1.50;;;;;;;;;;5080290;28;20214;-73
2023/07/06 03:54:57;;;;;;;3.27;1.80;;;;;;;;;;5078974;28;20327;-73
2023/07/06 03:57:25;;;;;;;2.75;1.58;;;;;;;;;;5076999;28;20202;-73
2023/07/06 03:59:52;;;;;;;2.88;1.80;;;;;;;;;;5070604;28;20203;-73
2023/07/06 04:02:20;;;;;;;3.80;1.60;;;;;;;;;;5075281;28;20206;-73
2023/07/06 04:04:47;;;;;;;1.45;1.35;;;;;;;;;;5073015;28;20199;-73
2023/07/06 04:07:15;;;;;;;2.63;1.70;;;;;;;;;;5077521;28;20215;-73
2023/07/06 04:09:42;;;;;;;2.63;1.70;;;;;;;;;;5069529;28;20217;-73
2023/07/06 04:12:09;;;;;;;3.75;1.60;;;;;;;;;;5072306;28;20226;-73
2023/07/06 04:14:36;;;;;;;3.07;1.67;;;;;;;;;;5077913;28;20202;-73
2023/07/06 04:17:04;;;;;;;2.20;1.83;;;;;;;;;;5080808;28;20213;-73
2023/07/06 04:19:33;;;;;;;3.15;1.50;;;;;;;;;;5075990;28;20214;-73
2023/07/06 04:22:02;;;;;;;2.33;1.70;;;;;;;;;;5074627;28;20202;-73
2023/07/06 04:24:31;;;;;;;3.53;1.80;;;;;;;;;;5076551;28;20219;-73
2023/07/06 04:27:00;;;;;;;2.28;1.75;;;;;;;;;;5075960;28;20225;-73
2023/07/06 04:29:28;;;;;;;2.07;1.60;;;;;;;;;;5070183;28;20240;-73
2023/07/06 04:31:56;;;;;;;4.15;1.50;;;;;;;;;;5073619;28;20225;-73
2023/07/06 04:34:23;;;;;;;1.83;1.67;;;;;;;;;;5076853;28;20210;-73
2023/07/06 04:36:52;;;;;;;2.00;1.50;;;;;;;;;;5080729;28;20345;-73
2023/07/06 04:39:19;;;;;;;3.25;1.63;;;;;;;;;;5076727;28;20199;-73
2023/07/06 04:41:46;;;;;;;1.70;1.60;;;;;;;;;;5075254;28;20217;-71
2023/07/06 04:44:13;;;;;;;3.28;1.98;;;;;;;;;;5075221;28;20190;-73
2023/07/06 04:46:41;;;;;;;2.58;1.73;;;;;;;;;;5069635;28;20270;-73
2023/07/06 04:49:08;;;;;;;3.93;1.80;;;;;;;;;;5070901;28;20256;-73
2023/07/06 04:51:36;;;;;;;3.67;1.90;;;;;;;;;;5078545;28;20225;-73
2023/07/06 04:54:04;;;;;;;3.03;1.88;;;;;;;;;;5076240;28;20206;-74
2023/07/06 04:56:31;;;;;;;2.47;1.65;;;;;;;;;;5075966;28;20209;-73
2023/07/06 04:58:59;;;;;;;3.38;1.90;;;;;;;;;;5069097;28;20203;-73
2023/07/06 05:01:26;;;;;;;1.70;1.60;;;;;;;;;;5072863;28;20261;-73
2023/07/06 05:03:54;;;;;;;2.30;1.50;;;;;;;;;;5074773;28;20225;-73
2023/07/06 05:06:22;;;;;;;4.57;1.90;;;;;;;;;;5072049;28;20205;-73
2023/07/06 05:08:50;;;;;;;5.20;1.90;;;;;;;;;;5080346;28;20230;-73
2023/07/06 05:11:18;;;;;;;2.37;1.77;;;;;;;;;;5068757;28;20222;-73
2023/07/06 05:13:46;;;;;;;3.50;1.80;;;;;;;;;;5071069;28;20211;-73
2023/07/06 05:16:15;;;;;;;3.42;1.92;;;;;;;;;;5069696;28;20210;-73
2023/07/06 05:18:43;;;;;;;2.17;1.80;;;;;;;;;;5071887;28;20249;-74
2023/07/06 05:21:10;;;;;;;1.98;1.77;;;;;;;;;;5068658;28;20210;-74
2023/07/06 05:23:37;;;;;;;2.58;1.88;;;;;;;;;;5071603;28;20207;-74
2023/07/06 05:26:05;;;;;;;1.98;1.77;;;;;;;;;;5069911;28;20210;-74
2023/07/06 05:28:34;;;;;;;1.75;1.60;;;;;;;;;;5077612;28;20202;-74
2023/07/06 05:31:02;;;;;;;2.70;1.77;;;;;;;;;;5070753;28;20206;-74
2023/07/06 05:33:29;;;;;;;3.80;1.80;;;;;;;;;;5076629;28;20309;-74
2023/07/06 05:35:56;;;;;;;2.47;1.83;;;;;;;;;;5074715;28;20207;-74
2023/07/06 05:38:25;;;;;;;4.75;1.95;;;;;;;;;;5077805;28;20309;-74
2023/07/06 05:40:52;;;;;;;2.92;1.83;;;;;;;;;;5071859;28;20263;-75
2023/07/06 05:43:20;;;;;;;5.03;1.85;;;;;;;;;;5074100;28;20198;-75
2023/07/06 05:45:48;;;;;;;2.88;2.13;;;;;;;;;;5071016;28;20202;-75
2023/07/06 05:48:18;;;;;;;2.08;1.88;;;;;;;;;;5072190;28;20194;-74
2023/07/06 05:50:45;;;;;;;5.00;2.00;;;;;;;;;;5072174;28;20210;-75
2023/07/06 05:53:13;;;;;;;2.28;1.80;;;;;;;;;;5074139;28;20238;-76
2023/07/06 05:55:43;;;;;;;2.15;1.50;;;;;;;;;;5074193;28;20206;-76
2023/07/06 05:58:11;;;;;;;2.13;1.90;;;;;;;;;;5073221;28;20195;-76
2023/07/06 06:00:45;;;;;;;2.70;2.10;;;;;;;;;;5076164;28;20209;-76
2023/07/06 06:03:16;;;;;;;2.75;1.98;;;;;;;;;;5078465;28;20206;-75
2023/07/06 06:05:43;;;;;;;3.20;1.80;;;;;;;;;;5077691;28;20209;-76
2023/07/06 06:08:11;;;;;;;2.55;1.80;;;;;;;;;;5071952;28;20219;-76
2023/07/06 06:10:42;;;;;;;1.95;1.75;;;;;;;;;;5068351;28;20213;-75
2023/07/06 06:13:10;;;;;;;1.92;1.70;;;;;;;;;;5076623;28;20224;-75
2023/07/06 06:15:37;;;;;;;2.53;2.00;;;;;;;;;;5080283;28;20206;-75
2023/07/06 06:18:05;;;;;;;2.28;2.00;;;;;;;;;;5075109;28;20198;-75
2023/07/06 06:20:36;;;;;;;2.58;1.80;;;;;;;;;;5076664;28;20244;-75
2023/07/06 06:23:04;;;;;;;2.95;1.85;;;;;;;;;;5074920;28;20203;-75
2023/07/06 06:25:31;;;;;;;1.80;1.63;;;;;;;;;;5079577;28;20207;-75
2023/07/06 06:27:59;;;;;;;3.13;2.03;;;;;;;;;;5078284;28;20238;-74
2023/07/06 06:30:26;;;;;;;1.98;1.77;;;;;;;;;;5074636;28;20205;-75
2023/07/06 06:32:56;;;;;;;4.32;1.92;;;;;;;;;;5075303;28;20222;-75
2023/07/06 06:35:24;;;;;;;2.35;1.55;;;;;;;;;;5069309;28;20249;-75
2023/07/06 06:37:54;;;;;;;3.03;1.40;;;;;;;;;;5070359;28;20241;-75
2023/07/06 06:40:22;;;;;;;3.08;1.60;;;;;;;;;;5075915;28;20210;-74
2023/07/06 06:42:49;;;;;;;2.00;1.70;;;;;;;;;;5070429;28;20198;-74
2023/07/06 06:45:17;;;;;;;3.45;2.00;;;;;;;;;;5076650;28;20210;-74
2023/07/06 06:47:45;;;;;;;2.70;1.77;;;;;;;;;;5079064;28;20205;-74
2023/07/06 06:50:14;;;;;;;2.85;1.90;;;;;;;;;;5073912;28;20203;-74
2023/07/06 06:52:41;;;;;;;3.03;1.40;;;;;;;;;;5085322;28;20225;-74
2023/07/06 06:55:13;;;;;;;2.00;1.65;;;;;;;;;;5079573;28;20194;-74
2023/07/06 06:57:42;;;;;;;2.85;1.80;;;;;;;;;;5072177;28;20195;-74
2023/07/06 07:00:13;;;;;;;1.58;1.48;;;;;;;;;;5066806;28;20210;-74
2023/07/06 07:02:41;;;;;;;2.85;1.60;;;;;;;;;;5071840;28;20298;-74
2023/07/06 07:05:09;;;;;;;2.38;1.80;;;;;;;;;;5078747;28;20206;-73
2023/07/06 07:07:38;;;;;;;1.75;1.60;;;;;;;;;;5079682;28;20213;-74
2023/07/06 07:10:09;;;;;;;2.08;1.45;;;;;;;;;;5080915;28;20290;-74
2023/07/06 07:12:38;;;;;;;2.53;1.50;;;;;;;;;;5079780;28;20227;-74
2023/07/06 07:15:06;;;;;;;2.33;1.40;;;;;;;;;;5084475;28;20213;-74
2023/07/06 07:17:33;;;;;;;1.80;1.27;;;;;;;;;;5074576;28;20203;-74
2023/07/06 07:20:01;;;;;;;1.13;1.00;;;;;;;;;;5080109;28;20202;-73
2023/07/06 07:22:28;;;;;;;2.22;1.30;;;;;;;;;;5078679;28;20195;-73
2023/07/06 07:24:58;;;;;;;1.73;1.35;;;;;;;;;;5075428;28;20206;-73
2023/07/06 07:27:26;;;;;;;2.20;1.17;;;;;;;;;;5081661;28;20214;-73
2023/07/06 07:29:55;;;;;;;1.70;1.20;;;;;;;;;;5075339;28;20293;-72
2023/07/06 07:32:23;;;;;;;1.70;1.10;;;;;;;;;;5068121;28;20237;-73
2023/07/06 07:34:51;;;;;;;1.70;1.20;;;;;;;;;;5070472;28;20213;-73
2023/07/06 07:37:18;;;;;;;1.80;1.40;;;;;;;;;;5067343;28;20298;-72
2023/07/06 07:39:47;;;;;;;2.30;1.10;;;;;;;;;;5083427;28;20301;-72
2023/07/06 07:42:14;;;;;;;4.05;1.42;;;;;;;;;;5079012;28;20190;-72
2023/07/06 07:44:44;;;;;;;1.67;1.40;;;;;;;;;;5080485;28;20272;-73
2023/07/06 07:47:13;;;;;;;3.00;1.38;;;;;;;;;;5075343;28;20250;-72
2023/07/06 07:49:40;;;;;;;1.60;1.10;;;;;;;;;;5074753;28;20225;-72
2023/07/06 07:52:09;;;;;;;1.30;1.20;;;;;;;;;;5079078;28;20199;-71
2023/07/06 07:54:37;;;;;;;2.58;1.17;;;;;;;;;;5078924;28;20284;-72
2023/07/06 07:57:04;;;;;;;1.10;1.00;;;;;;;;;;5084721;28;20201;-72
2023/07/06 07:59:33;;;;;;;3.55;1.20;;;;;;;;;;5073767;28;20217;-72
2023/07/06 08:02:00;;;;;;;2.85;1.42;;;;;;;;;;5074717;28;20206;-71
2023/07/06 08:04:30;;;;;;;1.50;1.20;;;;;;;;;;5074746;28;20202;-72
2023/07/06 08:06:57;;;;;;;2.85;1.30;;;;;;;;;;5073634;28;20207;-72
2023/07/06 08:09:24;;;;;;;1.85;1.58;;;;;;;;;;5076304;28;20211;-72
2023/07/06 08:11:53;;;;;;;1.80;1.30;;;;;;;;;;5075919;28;20285;-71
2023/07/06 08:14:33;;;;;;;2.08;1.38;;;;;;;;;;5077112;28;20223;-71
2023/07/06 08:17:01;;;;;;;2.83;1.30;;;;;;;;;;5078432;28;20252;-71
2023/07/06 08:19:29;;;;;;;1.73;1.10;;;;;;;;;;5076188;28;20219;-72
2023/07/06 08:21:57;;;;;;;3.70;1.20;;;;;;;;;;5074513;28;20214;-73
2023/07/06 08:24:24;;;;;;;3.65;1.50;;;;;;;;;;5075866;28;20213;-72
2023/07/06 08:26:51;;;;;;;1.73;1.20;;;;;;;;;;5076129;28;20268;-72
2023/07/06 08:29:19;;;;;;;3.20;1.42;;;;;;;;;;5072578;28;20210;-72
2023/07/06 08:31:47;;;;;;;4.30;1.40;;;;;;;;;;5068290;28;20207;-75
2023/07/06 08:34:16;;;;;;;1.92;1.00;;;;;;;;;;5076444;28;20230;-72
2023/07/06 08:36:45;;;;;;;1.98;1.00;;;;;;;;;;5067021;28;20210;-72
2023/07/06 08:39:13;;;;;;;1.77;1.10;;;;;;;;;;5073488;28;20280;-72
2023/07/06 08:41:41;;;;;;;4.00;1.23;;;;;;;;;;5076872;28;20320;-72
2023/07/06 08:44:10;;;;;;;1.33;0.90;;;;;;;;;;5075821;28;20198;-72
2023/07/06 08:46:39;;;;;;;3.78;1.27;;;;;;;;;;5071653;28;20210;-72
2023/07/06 08:49:19;;;;;;;1.67;1.08;;;;;;;;;;5081109;28;20207;-76
2023/07/06 08:51:48;;;;;;;1.85;1.17;;;;;;;;;;5079142;28;20213;-75
2023/07/06 08:54:19;;;;;;;1.42;1.10;;;;;;;;;;5069748;28;20218;-73
2023/07/06 08:56:48;;;;;;;1.92;1.27;;;;;;;;;;5077939;28;20221;-75
2023/07/06 08:59:19;;;;;;;2.55;1.20;;;;;;;;;;5076760;28;20202;-70
2023/07/06 09:01:46;;;;;;;0.98;0.98;;;;;;;;;;5073174;28;20202;-71
2023/07/06 09:04:16;;;;;;;2.22;1.05;;;;;;;;;;5078880;28;20194;-71
2023/07/06 09:06:48;;;;;;;1.92;1.00;;;;;;;;;;5082844;28;20202;-71
2023/07/06 09:09:17;;;;;;;1.30;1.10;;;;;;;;;;5076983;28;20272;-70
2023/07/06 09:11:45;;;;;;;1.70;1.05;;;;;;;;;;5083178;28;20202;-70
2023/07/06 09:14:16;;;;;;;1.27;1.13;;;;;;;;;;5073245;28;20223;-71
2023/07/06 09:16:47;;;;;;;1.15;0.95;;;;;;;;;;5071070;28;20202;-72
2023/07/06 09:19:16;;;;;;;1.48;1.15;;;;;;;;;;5072095;28;20245;-73
2023/07/06 09:21:45;;;;;;;2.38;1.30;;;;;;;;;;5071648;28;20207;-71
2023/07/06 09:24:12;;;;;;;1.38;1.10;;;;;;;;;;5070453;28;20207;-70
2023/07/06 09:26:44;;;;;;;3.00;1.20;;;;;;;;;;5070825;28;20203;-71
2023/07/06 09:29:17;;;;;;;1.38;1.05;;;;;;;;;;5073517;28;20202;-73
2023/07/06 09:31:47;;;;;;;2.38;1.30;;;;;;;;;;5076653;28;20255;-73
2023/07/06 09:34:25;;;;;;;3.22;1.40;;;;;;;;;;5074555;28;20230;-71
2023/07/06 09:36:52;;;;;;;3.95;1.50;;;;;;;;;;5084358;28;20221;-73
2023/07/06 09:39:20;;;;;;;1.38;1.15;;;;;;;;;;5079222;28;20218;-72
2023/07/06 09:41:49;;;;;;;1.40;1.00;;;;;;;;;;5075882;28;20202;-73
2023/07/06 09:44:18;;;;;;;1.48;1.10;;;;;;;;;;5073013;28;20220;-73
2023/07/06 09:46:48;;;;;;;2.15;1.80;;;;;;;;;;5072721;28;20206;-74
2023/07/06 09:49:17;;;;;;;1.58;1.40;;;;;;;;;;5071522;28;20220;-75
2023/07/06 09:51:50;;;;;;;1.48;1.10;;;;;;;;;;5071991;28;20288;-72
2023/07/06 09:54:19;;;;;;;3.90;1.45;;;;;;;;;;5070720;28;20222;-71
2023/07/06 09:56:48;;;;;;;1.30;1.00;;;;;;;;;;5078691;28;20210;-73
2023/07/06 09:59:18;;;;;;;4.07;1.10;;;;;;;;;;5070350;28;20202;-71
2023/07/06 10:01:53;;;;;;;3.75;1.20;;;;;;;;;;5072689;28;20203;-73
2023/07/06 10:04:35;;;;;;;2.78;1.50;;;;;;;;;;5068829;28;20197;-72
2023/07/06 10:07:08;;;;;;;1.23;1.10;;;;;;;;;;5074965;28;20203;-74
2023/07/06 10:09:39;;;;;;;1.70;1.20;;;;;;;;;;5073542;28;20267;-73
2023/07/06 10:12:10;;;;;;;1.80;1.20;;;;;;;;;;5079533;28;20198;-72
2023/07/06 10:14:42;;;;;;;5.80;1.40;;;;;;;;;;5079358;28;20222;-72
2023/07/06 10:17:18;;;;;;;1.55;1.15;;;;;;;;;;5077898;28;20247;-72
2023/07/06 10:19:51;;;;;;;1.25;1.15;;;;;;;;;;5079048;28;20203;-73
2023/07/06 10:22:22;;;;;;;1.40;1.10;;;;;;;;;;5076287;28;20200;-73
2023/07/06 10:24:54;;;;;;;1.27;1.02;;;;;;;;;;5072656;28;20221;-73
2023/07/06 10:27:28;;;;;;;1.15;1.10;;;;;;;;;;5079568;28;20202;-74
2023/07/06 10:30:00;;;;;;;1.30;1.20;;;;;;;;;;5078993;28;20198;-74
2023/07/06 10:32:30;;;;;;;1.58;1.38;;;;;;;;;;5076665;28;20206;-73
2023/07/06 10:34:59;;;;;;;2.80;1.52;;;;;;;;;;5076774;28;20218;-74
2023/07/06 10:37:27;;;;;;;2.10;1.23;;;;;;;;;;5078987;28;20234;-75
2023/07/06 10:40:04;;;;;;;1.30;1.15;;;;;;;;;;5072529;28;20267;-72
2023/07/06 10:42:32;;;;;;;2.58;1.55;;;;;;;;;;5077306;28;20198;-73
2023/07/06 10:45:02;;;;;;;3.33;1.50;;;;;;;;;;5076413;28;20284;-72
2023/07/06 10:47:37;;;;;;;2.03;1.42;;;;;;;;;;5078723;28;20210;-72
2023/07/06 10:50:12;;;;;;;1.38;1.27;;;;;;;;;;5071746;28;20234;-73
2023/07/06 10:52:40;;;;;;;2.85;1.45;;;;;;;;;;5078312;28;20211;-74
2023/07/06 10:55:10;;;;;;;1.35;1.20;;;;;;;;;;5077305;28;20317;-73
2023/07/06 10:57:38;;;;;;;1.08;1.08;;;;;;;;;;5073963;28;20201;-72
2023/07/06 11:00:14;;;;;;;4.72;1.33;;;;;;;;;;5073275;28;20206;-73
2023/07/06 11:02:43;;;;;;;1.80;1.30;;;;;;;;;;5071342;28;20217;-73
2023/07/06 11:05:14;;;;;;;1.35;1.25;;;;;;;;;;5079198;28;20270;-75
2023/07/06 11:07:44;;;;;;;2.08;1.40;;;;;;;;;;5076880;28;20290;-74
2023/07/06 11:10:19;;;;;;;2.03;1.40;;;;;;;;;;5077311;28;20202;-75
2023/07/06 11:12:54;;;;;;;2.75;1.42;;;;;;;;;;5070737;28;20216;-75
2023/07/06 11:15:28;;;;;;;1.33;1.00;;;;;;;;;;5071810;28;20332;-75
2023/07/06 11:17:56;;;;;;;1.63;1.30;;;;;;;;;;5071704;28;20209;-74
2023/07/06 11:20:25;;;;;;;1.70;1.48;;;;;;;;;;5076561;28;20217;-74
2023/07/06 11:22:58;;;;;;;3.45;1.40;;;;;;;;;;5080041;28;20277;-74
2023/07/06 11:25:28;;;;;;;2.22;1.20;;;;;;;;;;5080989;28;20198;-75
2023/07/06 11:27:59;;;;;;;1.73;1.20;;;;;;;;;;5075487;28;20206;-74
2023/07/06 11:30:36;;;;;;;2.72;1.45;;;;;;;;;;5070784;28;20230;-74
2023/07/06 11:33:13;;;;;;;2.38;1.40;;;;;;;;;;5078231;28;20233;-74
2023/07/06 11:35:47;;;;;;;1.55;1.20;;;;;;;;;;5073889;28;20214;-75
2023/07/06 11:38:30;;;;;;;1.48;1.20;;;;;;;;;;5074309;28;20279;-75
2023/07/06 11:41:12;;;;;;;1.30;1.20;;;;;;;;;;5070839;28;20304;-75
2023/07/06 11:43:47;;;;;;;3.50;1.60;;;;;;;;;;5078592;28;20215;-74
2023/07/06 11:46:23;;;;;;;2.47;1.50;;;;;;;;;;5080072;28;20205;-75
2023/07/06 11:48:57;;;;;;;1.83;1.30;;;;;;;;;;5082061;28;20209;-76
2023/07/06 11:51:27;;;;;;;3.55;1.58;;;;;;;;;;5071903;28;20210;-73
2023/07/06 11:53:56;;;;;;;1.58;1.40;;;;;;;;;;5070593;28;20227;-76
2023/07/06 11:56:35;;;;;;;2.17;1.50;;;;;;;;;;5077425;28;20205;-72
2023/07/06 11:59:04;;;;;;;1.60;1.50;;;;;;;;;;5083524;28;20198;-74
2023/07/06 12:01:40;;;;;;;2.55;1.50;;;;;;;;;;5070623;28;20222;-73
2023/07/06 12:04:12;;;;;;;1.77;1.30;;;;;;;;;;5079537;28;20220;-73
2023/07/06 12:06:39;;;;;;;2.00;1.80;;;;;;;;;;5071098;28;20214;-72
2023/07/06 12:09:07;;;;;;;1.63;1.40;;;;;;;;;;5078288;28;20239;-74
2023/07/06 12:11:37;;;;;;;1.95;1.50;;;;;;;;;;5071394;28;20206;-74
2023/07/06 12:14:05;;;;;;;1.67;1.50;;;;;;;;;;5075104;28;20227;-74
2023/07/06 12:16:39;;;;;;;2.20;1.63;;;;;;;;;;5075909;28;20213;-74
2023/07/06 12:19:07;;;;;;;2.60;1.80;;;;;;;;;;5076718;28;20206;-73
2023/07/06 12:21:36;;;;;;;2.67;1.80;;;;;;;;;;5079753;28;20202;-75
2023/07/06 12:24:04;;;;;;;3.78;1.80;;;;;;;;;;5073113;28;20202;-75
2023/07/06 12:26:32;;;;;;;1.50;1.40;;;;;;;;;;5073687;28;20214;-73
2023/07/06 12:28:59;;;;;;;2.85;1.40;;;;;;;;;;5074674;28;20336;-73
2023/07/06 12:31:27;;;;;;;1.92;1.30;;;;;;;;;;5074395;28;20205;-73
2023/07/06 12:33:56;;;;;;;2.70;1.63;;;;;;;;;;5070992;28;20254;-77
2023/07/06 12:36:26;;;;;;;4.20;1.63;;;;;;;;;;5069934;28;20206;-74
2023/07/06 12:38:56;;;;;;;1.50;1.33;;;;;;;;;;5068304;28;20205;-74
2023/07/06 12:41:23;;;;;;;1.40;1.30;;;;;;;;;;5074455;28;20203;-75
2023/07/06 12:43:53;;;;;;;1.95;1.58;;;;;;;;;;5076397;28;20202;-74
2023/07/06 12:46:22;;;;;;;2.70;1.63;;;;;;;;;;5073651;28;20202;-73
2023/07/06 12:48:53;;;;;;;2.33;1.60;;;;;;;;;;5070980;28;20232;-75
2023/07/06 12:51:24;;;;;;;1.77;1.30;;;;;;;;;;5074508;28;20206;-75
2023/07/06 12:53:55;;;;;;;1.52;1.40;;;;;;;;;;5068087;28;20230;-75
2023/07/06 12:56:24;;;;;;;3.03;1.65;;;;;;;;;;5076489;28;20214;-74
2023/07/06 12:58:57;;;;;;;2.30;1.58;;;;;;;;;;5071480;28;20203;-74
2023/07/06 13:01:28;;;;;;;1.75;1.65;;;;;;;;;;5073197;28;20203;-73
2023/07/06 13:04:02;;;;;;;2.05;1.60;;;;;;;;;;5071894;28;20203;-66
2023/07/06 13:06:32;;;;;;;1.50;1.40;;;;;;;;;;5076726;28;20233;-65
2023/07/06 13:09:01;;;;;;;1.55;1.38;;;;;;;;;;5068656;28;20214;-65
2023/07/06 13:11:29;;;;;;;3.10;1.73;;;;;;;;;;5077272;28;20244;-65
2023/07/06 13:13:57;;;;;;;1.50;1.40;;;;;;;;;;5075146;28;20198;-65
2023/07/06 13:16:25;;;;;;;2.22;1.60;;;;;;;;;;5073356;28;20231;-64
2023/07/06 13:18:53;;;;;;;2.90;1.70;;;;;;;;;;5073290;28;20206;-64
2023/07/06 13:21:23;;;;;;;2.67;1.92;;;;;;;;;;5076415;28;20242;-65
2023/07/06 13:23:55;;;;;;;1.63;1.52;;;;;;;;;;5075162;28;20241;-67
2023/07/06 13:26:26;;;;;;;1.42;1.30;;;;;;;;;;5068699;28;20213;-67
2023/07/06 13:28:53;;;;;;;1.98;1.60;;;;;;;;;;5076536;28;20206;-66
2023/07/06 13:31:21;;;;;;;2.55;1.70;;;;;;;;;;5070625;28;20203;-66
2023/07/06 13:33:48;;;;;;;2.92;1.40;;;;;;;;;;5070802;28;20201;-66
2023/07/06 13:36:17;;;;;;;1.95;1.40;;;;;;;;;;5076887;28;20246;-64
2023/07/06 13:38:46;;;;;;;2.25;1.60;;;;;;;;;;5082161;28;20248;-65
2023/07/06 13:41:16;;;;;;;1.98;1.40;;;;;;;;;;5073846;28;20198;-64
2023/07/06 13:43:47;;;;;;;1.88;1.70;;;;;;;;;;5072241;28;20214;-64
2023/07/06 13:46:15;;;;;;;2.42;1.50;;;;;;;;;;5078531;28;20198;-65
2023/07/06 13:48:45;;;;;;;1.85;1.55;;;;;;;;;;5075431;28;20210;-64
2023/07/06 13:51:14;;;;;;;1.60;1.50;;;;;;;;;;5079904;28;20221;-64
2023/07/06 13:53:41;;;;;;;2.50;1.45;;;;;;;;;;5075696;28;20210;-66
2023/07/06 13:56:13;;;;;;;2.80;1.80;;;;;;;;;;5076088;28;20214;-66
2023/07/06 13:58:43;;;;;;;2.53;1.60;;;;;;;;;;5073345;28;20203;-65
2023/07/06 14:01:12;;;;;;;2.20;1.60;;;;;;;;;;5078192;28;20206;-64
2023/07/06 14:03:39;;;;;;;2.60;1.88;;;;;;;;;;5082218;28;20209;-64
2023/07/06 14:06:07;;;;;;;2.55;1.73;;;;;;;;;;5072490;28;20356;-67
2023/07/06 14:08:34;;;;;;;1.88;1.67;;;;;;;;;;5074464;28;20203;-63
2023/07/06 14:11:02;;;;;;;2.05;1.42;;;;;;;;;;5080892;28;20241;-64
2023/07/06 14:13:29;;;;;;;2.30;1.52;;;;;;;;;;5081973;28;20198;-64
2023/07/06 14:15:58;;;;;;;2.83;1.65;;;;;;;;;;5072778;28;20248;-64
2023/07/06 14:18:26;;;;;;;1.95;1.60;;;;;;;;;;5071537;28;20225;-64
2023/07/06 14:20:57;;;;;;;2.65;1.70;;;;;;;;;;5077718;28;20198;-65
2023/07/06 14:23:26;;;;;;;4.35;1.70;;;;;;;;;;5072069;28;20215;-64
2023/07/06 14:25:54;;;;;;;2.55;1.70;;;;;;;;;;5070528;28;20203;-66
2023/07/06 14:28:26;;;;;;;2.97;1.60;;;;;;;;;;5070057;28;20219;-65
2023/07/06 14:30:55;;;;;;;1.42;1.33;;;;;;;;;;5071488;28;20207;-63
2023/07/06 14:33:26;;;;;;;1.90;1.70;;;;;;;;;;5078807;28;20206;-67
2023/07/06 14:35:54;;;;;;;2.33;1.50;;;;;;;;;;5077386;28;20218;-63
2023/07/06 14:38:21;;;;;;;2.55;1.50;;;;;;;;;;5079694;28;20226;-65
2023/07/06 14:40:49;;;;;;;3.38;1.58;;;;;;;;;;5079167;28;20213;-63
2023/07/06 14:43:16;;;;;;;1.70;1.60;;;;;;;;;;5076465;28;20203;-63
2023/07/06 14:45:45;;;;;;;1.90;1.63;;;;;;;;;;5081035;28;20204;-64
2023/07/06 14:48:12;;;;;;;2.13;1.60;;;;;;;;;;5075652;28;20213;-63
2023/07/06 14:50:41;;;;;;;1.88;1.65;;;;;;;;;;5082951;28;20209;-63
2023/07/06 14:53:09;;;;;;;1.67;1.58;;;;;;;;;;5074112;28;20198;-65
2023/07/06 14:55:37;;;;;;;1.73;1.60;;;;;;;;;;5079323;28;20267;-63